Архив погоды в Барнауле

Метеограмма Барнаул
Пятница, 26 Мая
Время местн. Темп Ветер Видим Явления Облачность нижн/средн/верх Атм. давл. Влжн Точка росы ВНГО R Сост. почвы Tg s
Напр Скр Прв ур.ст ур.м изм
06:00 +11.9° З 3 - 10 км - ясно 746 763 +1.5 56% +3.5° более 2.5 км 0 Сухая (без трещин) - -
03:00 +9.8° Ю,Ю-З 3 - 10 км - ясно 745 762 -0.5 57% +1.7° более 2.5 км - - - -
00:00 +10.9° Ю,Ю-З 3 - 10 км - ясно 745 762 -0.5 51% +1.2° более 2.5 км - - - -
Четверг, 25 Мая
Время местн. Темп Ветер Видим Явления Облачность нижн/средн/верх Атм. давл. Влжн Точка росы ВНГО R Сост. почвы Tg s
Напр Скр Прв ур.ст ур.м изм
21:00 +12.1° Ю-З 2 - 10 км - ясно 746 762 +0.2 47% +1.1° более 2.5 км - - - -
18:00 +16.6° Ю-З 3 10 10 км - облачно с прояснениями 746 762 -0.1 34% +0.7° 1 км 0 - - -
15:00 +16.7° З 3 - 10 км - облачно с прояснениями 746 762 -0.3 37% +2° 1 км - - - -
12:00 +14.7° З 4 - 10 км - облачно с прояснениями 746 762 +1 46% +3.2° 1 км - - - -
09:00 +13.6° З,Ю-З 4 10 10 км - переменная облачность 745 762 +1.2 61% +6.3° 1 км - - - -
06:00 +11.7° З,Ю-З 3 - 10 км - переменная облачность 744 760 +1.4 82% +8.8° 1 км 1 Влажная (без луж) - -
03:00 +11.9° Ю-З 3 - 10 км - облачно 742 759 +2 82% +9° более 2.5 км - - - -
00:00 +15.7° З,Ю-З 6 13 10 км небо без изменений {гроза, ливневые осадки} ясно 740 757 +0.1 79% +12° более 2.5 км - - - -
Среда, 24 Мая
Время местн. Темп Ветер Видим Явления Облачность нижн/средн/верх Атм. давл. Влжн Точка росы ВНГО R Сост. почвы Tg s
Напр Скр Прв ур.ст ур.м изм
21:00 +16.9° Ю,Ю-З 3 - 10 км гроза в последний час, слабый дождь {ливневые осадки} преимущественно облачно 740 756 +1.4 82% +13.8° 1 км - - - -
18:00 +19.7° З 4 - 10 км гроза без осадков {ливневые осадки} облачно 739 755 -0.9 69% +13.9° 1 км 1 - - -
15:00 +27.3° Ю,Ю-З 5 15 10 км - преимущественно облачно 740 756 -1.4 30% +8.2° 1 км - - - -
12:00 +26.3° Ю,Ю-З 7 14 10 км - облачно с прояснениями 741 757 -0.1 34% +9.2° 1.5 км - - - -
09:00 +21.7° Ю-З 5 11 10 км - облачно 741 757 +1.1 48% +10.3° - - - - -
06:00 +19.7° Ю,Ю-З 5 14 10 км - преимущественно облачно 740 756 +2.3 48% +8.5° более 2.5 км 0 Сухая (без трещин) +17° -
03:00 +22.8° Ю-З 7 14 10 км - переменная облачность 738 754 +2.3 38% +7.9° 1 км - - - -
00:00 +24.4° Ю 3 - 10 км - ясно 736 751 -0.4 24% +2.3° более 2.5 км - - - -
Вторник, 23 Мая
Время местн. Темп Ветер Видим Явления Облачность нижн/средн/верх Атм. давл. Влжн Точка росы ВНГО R Сост. почвы Tg s
Напр Скр Прв ур.ст ур.м изм
21:00 +25.8° Ю 1 - 10 км - переменная облачность 736 752 -0.7 20% +1.5° более 2.5 км - - - -
18:00 +32.5° Ю,Ю-З 4 - 10 км - переменная облачность 737 752 -1.7 13% +1° более 2.5 км 0 - - -
15:00 +32.1° Ю,Ю-З 6 10 10 км - переменная облачность 738 754 -2 11% -2° более 2.5 км - - - -
12:00 +29.2° Ю,Ю-З 5 10 10 км - переменная облачность 741 756 -1.4 16% +0.4° более 2.5 км - - - -
09:00 +24.2° Ю 3 - 10 км - переменная облачность 742 758 -0.4 28% +4.5° более 2.5 км - - - -
06:00 +16.6° Ю 2 - 10 км - облачно с прояснениями 742 759 -0.3 42% +3.5° более 2.5 км 0 Сухая (без трещин) - -
03:00 +16.8° Ю,Ю-З 2 - 10 км - ясно 743 759 -0.6 37% +2.2° более 2.5 км - - - -